createdAt,value
2023-04-27T00:59:16.123Z,1005.5
2023-04-27T01:49:08.214Z,1005.9
2023-04-27T01:54:07.668Z,1005.8
2023-04-27T01:59:08.041Z,1005.8
2023-04-27T02:04:08.612Z,1005.8
2023-04-27T02:09:06.745Z,1005.8
2023-04-27T02:14:06.695Z,1005.8
2023-04-27T02:19:06.719Z,1005.8
2023-04-27T02:24:06.648Z,1005.9
2023-04-27T02:29:08.406Z,1005.8
2023-04-27T02:34:04.149Z,1005.9
2023-04-27T02:39:04.084Z,1005.9
2023-04-27T02:44:03.690Z,1005.9
2023-04-27T02:49:03.351Z,1005.9
2023-04-27T02:54:00.819Z,1005.8
2023-04-27T02:59:00.212Z,1005.9
2023-04-27T03:04:01.344Z,1005.9
2023-04-27T03:09:00.112Z,1005.9
2023-04-27T03:13:58.254Z,1005.9
2023-04-27T03:18:58.147Z,1005.9
2023-04-27T03:23:57.571Z,1005.9
2023-04-27T03:28:57.756Z,1005.9
2023-04-27T03:33:55.214Z,1006
2023-04-27T03:38:54.692Z,1006
2023-04-27T03:43:54.483Z,1006
2023-04-27T03:48:53.424Z,1006
2023-04-27T03:53:53.717Z,1006
2023-04-27T03:58:52.825Z,1006.1
2023-04-27T04:05:24.823Z,1006.2
2023-04-27T04:10:23.583Z,1006.2
2023-04-27T04:15:23.295Z,1006.2
2023-04-27T04:20:23.228Z,1006.1
2023-04-27T04:25:22.390Z,1006.1
2023-04-27T04:35:21.873Z,1006.1
2023-04-27T04:40:23.723Z,1006.2
2023-04-27T04:45:20.613Z,1006.2
2023-04-27T04:55:19.619Z,1006.2
2023-04-27T05:42:49.940Z,1006.6
2023-04-27T05:48:39.516Z,1006.5
2023-04-27T05:53:39.720Z,1006.5
2023-04-27T05:58:39.206Z,1006.6
2023-04-27T06:00:25.358Z,1006.6
2023-04-27T06:05:00.234Z,1006.6
2023-04-27T06:10:00.409Z,1006.6
2023-04-27T06:14:59.813Z,1006.7
2023-04-27T06:20:01.000Z,1006.8
2023-04-27T06:24:57.673Z,1006.8
2023-04-27T06:29:57.514Z,1006.8
2023-04-27T06:34:57.182Z,1006.8
2023-04-27T06:39:57.080Z,1006.7
2023-04-27T06:44:54.536Z,1006.8
2023-04-27T06:49:54.442Z,1006.8
2023-04-27T06:54:54.043Z,1006.9
2023-04-27T07:29:40.453Z,1006.7
2023-04-27T08:04:22.231Z,1006
2023-04-27T08:09:22.198Z,1006.1
2023-04-27T08:14:23.173Z,1006
2023-04-27T08:19:31.886Z,1006.1
2023-04-27T08:24:19.772Z,1006.2
2023-04-27T08:29:34.581Z,1006.1
2023-04-27T08:34:07.765Z,1006
2023-04-27T08:39:07.751Z,1006
2023-04-27T08:44:10.126Z,1005.9
2023-04-27T08:49:09.313Z,1005.9
2023-04-27T08:54:05.915Z,1005.8
2023-04-27T08:59:05.935Z,1005.8
2023-04-27T09:00:52.871Z,1005.7
2023-04-27T09:40:23.659Z,1005.6
2023-04-27T09:45:23.519Z,1005.8
2023-04-27T09:50:20.832Z,1005.6
2023-04-27T09:55:20.246Z,1006.2
2023-04-27T12:04:16.863Z,1005
2023-04-27T12:09:15.191Z,1005.1
2023-04-27T12:14:25.846Z,1005.1
2023-04-27T12:19:24.896Z,1005.1
2023-04-27T12:24:26.777Z,1005.1
2023-04-27T12:29:23.850Z,1005
2023-04-27T12:34:23.590Z,1005.1
2023-04-27T12:39:24.686Z,1005.2
2023-04-27T12:44:22.080Z,1005.2
2023-04-27T12:49:21.595Z,1005.1
2023-04-27T12:54:23.801Z,1005
2023-04-27T12:59:19.973Z,1004.9
2023-04-27T13:04:20.703Z,1005
2023-04-27T13:09:19.536Z,1004.9
2023-04-27T13:14:07.133Z,1004.8
2023-04-27T13:19:06.942Z,1004.8
2023-04-27T13:24:07.173Z,1004.9
2023-04-27T13:29:07.653Z,1004.8
2023-04-27T13:34:04.289Z,1004.9
2023-04-27T13:39:03.677Z,1005
2023-04-27T13:44:03.219Z,1005
2023-04-27T13:49:03.365Z,1004.9
2023-04-27T13:54:00.922Z,1004.8
2023-04-27T13:59:00.347Z,1004.9
2023-04-27T14:01:02.317Z,1004.9
2023-04-27T14:05:23.375Z,1005
2023-04-27T14:10:19.898Z,1004.9
2023-04-27T14:15:19.708Z,1004
2023-04-27T14:20:18.812Z,1004.5
2023-04-27T14:25:18.407Z,1004.7
2023-04-27T14:30:15.823Z,1004.8
2023-04-27T14:35:15.916Z,1004.7
2023-04-27T14:40:25.289Z,1004.6
2023-04-27T14:46:29.559Z,1004.6
2023-04-27T14:50:14.988Z,1004.7
2023-04-27T14:55:25.580Z,1004.8
2023-04-27T16:04:16.102Z,1004.4
2023-04-27T16:09:15.727Z,1004.3
2023-04-27T16:14:16.803Z,1004.3
2023-04-27T16:19:24.376Z,1004.2
2023-04-27T16:24:22.923Z,1004.2
2023-04-27T16:29:24.085Z,1004.1
2023-04-27T16:34:20.973Z,1004.1
2023-04-27T16:39:20.355Z,1004.2
2023-04-27T16:44:21.938Z,1004.1
2023-04-27T16:49:08.286Z,1004.1
2023-04-27T16:54:07.702Z,1004.2
2023-04-27T16:59:06.552Z,1004.3
2023-04-27T17:04:06.700Z,1004.2
2023-04-27T17:09:03.825Z,1004.3
2023-04-27T17:14:03.503Z,1004.2
2023-04-27T17:19:03.005Z,1004.1
2023-04-27T17:24:02.532Z,1004.2
2023-04-27T17:29:00.558Z,1004.2
2023-04-27T17:34:00.649Z,1004.1
2023-04-27T17:39:02.174Z,1004.2
2023-04-27T17:43:59.246Z,1004.2
2023-04-27T17:48:59.954Z,1004.3
2023-04-27T17:53:58.704Z,1004.3
2023-04-27T17:58:58.411Z,1004.4
2023-04-27T18:00:45.090Z,1004.4
2023-04-27T18:05:19.892Z,1004.4
2023-04-27T18:10:17.274Z,1004.3
2023-04-27T18:15:20.355Z,1004
2023-04-27T18:20:22.394Z,1004
2023-04-27T18:25:15.481Z,1003.7
2023-04-27T18:30:25.567Z,1003.7
2023-04-27T18:35:25.327Z,1004.1
2023-04-27T18:40:25.343Z,1004.3
2023-04-27T18:45:25.889Z,1004.3
2023-04-27T18:50:23.756Z,1003.6
2023-04-27T18:55:22.662Z,1003.6
2023-04-27T19:54:37.074Z,1003.6
2023-04-27T20:24:18.877Z,1003.5
2023-04-27T21:04:25.779Z,1003.2
2023-04-27T21:09:25.282Z,1003.2
2023-04-27T21:14:24.233Z,1003.2
2023-04-27T21:19:24.770Z,1003.1
2023-04-27T21:24:29.495Z,1003
2023-04-27T21:29:23.424Z,1002.9
2023-04-27T21:34:23.121Z,1003
2023-04-27T21:39:24.793Z,1002.9
2023-04-27T21:44:21.759Z,1002.8
2023-04-27T21:49:20.902Z,1002.9
2023-04-27T21:54:21.141Z,1002.8
2023-04-27T21:59:08.521Z,1002.8
2023-04-27T22:04:08.713Z,1002.7
2023-04-27T22:09:08.539Z,1002.7
2023-04-27T22:14:09.067Z,1002.7
2023-04-27T22:19:05.518Z,1002.6
2023-04-27T22:24:05.587Z,1002.6
2023-04-27T22:29:04.757Z,1002.7
2023-04-27T22:34:04.636Z,1002.6
2023-04-27T22:39:02.805Z,1002.6
2023-04-27T22:44:02.472Z,1002.5
2023-04-27T22:49:02.176Z,1002.5
2023-04-27T22:54:01.566Z,1002.5
2023-04-27T22:59:01.123Z,1002.3
2023-04-27T23:04:01.191Z,1002.2
2023-04-27T23:09:00.550Z,1002.1
2023-04-27T23:14:00.329Z,1002.1
2023-04-27T23:18:57.293Z,1002.1
2023-04-27T23:23:56.978Z,1002.2
2023-04-27T23:28:57.732Z,1002.1
2023-04-27T23:33:56.742Z,1002
2023-04-27T23:38:56.086Z,1001.9
2023-04-27T23:43:56.188Z,1001.8
2023-04-27T23:48:55.651Z,1001.9
2023-04-27T23:53:55.373Z,1001.9
2023-04-27T23:58:53.493Z,1001.9
